sensor_id;sensor_type;location;lat;lon;timestamp;P1;durP1;ratioP1;P2;durP2;ratioP2
64188;SDS011;50493;50.970;10.082;2023-03-30T00:01:02;7.68;;;4.60;;
64188;SDS011;50493;50.970;10.082;2023-03-30T00:03:27;8.02;;;4.32;;
64188;SDS011;50493;50.970;10.082;2023-03-30T00:05:53;9.32;;;4.88;;
64188;SDS011;50493;50.970;10.082;2023-03-30T00:08:22;7.75;;;4.47;;
64188;SDS011;50493;50.970;10.082;2023-03-30T00:10:52;8.05;;;4.35;;
64188;SDS011;50493;50.970;10.082;2023-03-30T00:13:19;6.93;;;4.22;;
64188;SDS011;50493;50.970;10.082;2023-03-30T00:15:47;8.45;;;4.55;;
64188;SDS011;50493;50.970;10.082;2023-03-30T00:18:13;7.55;;;4.53;;
64188;SDS011;50493;50.970;10.082;2023-03-30T00:20:38;6.63;;;4.53;;
64188;SDS011;50493;50.970;10.082;2023-03-30T00:23:06;7.38;;;3.58;;
64188;SDS011;50493;50.970;10.082;2023-03-30T00:25:32;8.32;;;4.10;;
64188;SDS011;50493;50.970;10.082;2023-03-30T00:27:57;5.63;;;3.78;;
64188;SDS011;50493;50.970;10.082;2023-03-30T00:30:23;6.53;;;4.05;;
64188;SDS011;50493;50.970;10.082;2023-03-30T00:32:49;7.07;;;4.15;;
64188;SDS011;50493;50.970;10.082;2023-03-30T00:35:15;7.22;;;4.60;;
64188;SDS011;50493;50.970;10.082;2023-03-30T00:37:41;7.53;;;4.10;;
64188;SDS011;50493;50.970;10.082;2023-03-30T00:40:12;5.90;;;3.78;;
64188;SDS011;50493;50.970;10.082;2023-03-30T00:42:44;7.93;;;4.10;;
64188;SDS011;50493;50.970;10.082;2023-03-30T00:45:15;5.68;;;3.70;;
64188;SDS011;50493;50.970;10.082;2023-03-30T00:47:44;8.50;;;4.20;;
64188;SDS011;50493;50.970;10.082;2023-03-30T00:50:19;7.05;;;4.47;;
64188;SDS011;50493;50.970;10.082;2023-03-30T00:52:48;6.85;;;3.97;;
64188;SDS011;50493;50.970;10.082;2023-03-30T00:55:16;6.18;;;4.10;;
64188;SDS011;50493;50.970;10.082;2023-03-30T00:57:45;6.75;;;3.83;;
64188;SDS011;50493;50.970;10.082;2023-03-30T01:00:11;5.88;;;3.42;;
64188;SDS011;50493;50.970;10.082;2023-03-30T01:02:40;8.35;;;4.25;;
64188;SDS011;50493;50.970;10.082;2023-03-30T01:05:11;5.32;;;3.53;;
64188;SDS011;50493;50.970;10.082;2023-03-30T01:07:37;6.72;;;3.85;;
64188;SDS011;50493;50.970;10.082;2023-03-30T01:10:04;6.18;;;3.72;;
64188;SDS011;50493;50.970;10.082;2023-03-30T01:12:32;7.47;;;3.78;;
64188;SDS011;50493;50.970;10.082;2023-03-30T01:14:58;6.93;;;3.67;;
64188;SDS011;50493;50.970;10.082;2023-03-30T01:17:25;7.25;;;3.58;;
64188;SDS011;50493;50.970;10.082;2023-03-30T01:23:03;5.65;;;3.53;;
64188;SDS011;50493;50.970;10.082;2023-03-30T01:26:03;6.38;;;3.55;;
64188;SDS011;50493;50.970;10.082;2023-03-30T01:28:42;5.95;;;3.78;;
64188;SDS011;50493;50.970;10.082;2023-03-30T01:31:30;9.48;;;4.35;;
64188;SDS011;50493;50.970;10.082;2023-03-30T01:34:10;6.45;;;3.70;;
64188;SDS011;50493;50.970;10.082;2023-03-30T01:37:03;7.25;;;3.50;;
64188;SDS011;50493;50.970;10.082;2023-03-30T01:39:41;5.80;;;3.33;;
64188;SDS011;50493;50.970;10.082;2023-03-30T01:42:16;8.10;;;3.50;;
64188;SDS011;50493;50.970;10.082;2023-03-30T01:44:48;5.40;;;3.33;;
64188;SDS011;50493;50.970;10.082;2023-03-30T01:47:21;5.95;;;3.35;;
64188;SDS011;50493;50.970;10.082;2023-03-30T01:49:53;6.80;;;3.30;;
64188;SDS011;50493;50.970;10.082;2023-03-30T01:52:23;5.85;;;3.28;;
64188;SDS011;50493;50.970;10.082;2023-03-30T01:54:55;6.72;;;3.20;;
64188;SDS011;50493;50.970;10.082;2023-03-30T01:57:25;6.10;;;3.13;;
64188;SDS011;50493;50.970;10.082;2023-03-30T01:59:55;5.68;;;2.90;;
64188;SDS011;50493;50.970;10.082;2023-03-30T02:02:22;4.78;;;3.10;;
64188;SDS011;50493;50.970;10.082;2023-03-30T02:04:50;6.22;;;3.20;;
64188;SDS011;50493;50.970;10.082;2023-03-30T02:07:18;5.90;;;3.10;;
64188;SDS011;50493;50.970;10.082;2023-03-30T02:09:48;4.22;;;2.65;;
64188;SDS011;50493;50.970;10.082;2023-03-30T02:12:19;7.22;;;3.13;;
64188;SDS011;50493;50.970;10.082;2023-03-30T02:14:46;7.07;;;3.00;;
64188;SDS011;50493;50.970;10.082;2023-03-30T02:17:14;6.47;;;3.05;;
64188;SDS011;50493;50.970;10.082;2023-03-30T02:19:42;6.30;;;2.92;;
64188;SDS011;50493;50.970;10.082;2023-03-30T02:22:10;7.22;;;3.03;;
64188;SDS011;50493;50.970;10.082;2023-03-30T02:24:36;5.97;;;3.10;;
64188;SDS011;50493;50.970;10.082;2023-03-30T02:27:02;6.25;;;3.17;;
64188;SDS011;50493;50.970;10.082;2023-03-30T02:29:29;5.40;;;3.03;;
64188;SDS011;50493;50.970;10.082;2023-03-30T02:31:57;5.38;;;2.90;;
64188;SDS011;50493;50.970;10.082;2023-03-30T02:34:28;5.05;;;2.97;;
64188;SDS011;50493;50.970;10.082;2023-03-30T02:37:11;5.82;;;3.13;;
64188;SDS011;50493;50.970;10.082;2023-03-30T02:39:59;4.40;;;2.75;;
64188;SDS011;50493;50.970;10.082;2023-03-30T02:42:43;8.02;;;3.30;;
64188;SDS011;50493;50.970;10.082;2023-03-30T02:45:24;6.10;;;3.00;;
64188;SDS011;50493;50.970;10.082;2023-03-30T02:48:06;4.70;;;2.67;;
64188;SDS011;50493;50.970;10.082;2023-03-30T02:50:39;6.95;;;3.00;;
64188;SDS011;50493;50.970;10.082;2023-03-30T02:53:11;5.03;;;2.90;;
64188;SDS011;50493;50.970;10.082;2023-03-30T02:55:46;6.43;;;3.15;;
64188;SDS011;50493;50.970;10.082;2023-03-30T02:58:22;5.65;;;2.92;;
64188;SDS011;50493;50.970;10.082;2023-03-30T03:00:54;5.82;;;2.65;;
64188;SDS011;50493;50.970;10.082;2023-03-30T03:03:25;4.63;;;2.50;;
64188;SDS011;50493;50.970;10.082;2023-03-30T03:05:55;5.78;;;2.80;;
64188;SDS011;50493;50.970;10.082;2023-03-30T03:08:27;6.53;;;2.65;;
64188;SDS011;50493;50.970;10.082;2023-03-30T03:10:56;5.15;;;2.90;;
64188;SDS011;50493;50.970;10.082;2023-03-30T03:13:21;5.20;;;2.60;;
64188;SDS011;50493;50.970;10.082;2023-03-30T03:15:48;6.28;;;2.67;;
64188;SDS011;50493;50.970;10.082;2023-03-30T03:18:15;5.15;;;2.70;;
64188;SDS011;50493;50.970;10.082;2023-03-30T03:20:42;5.18;;;2.88;;
64188;SDS011;50493;50.970;10.082;2023-03-30T03:23:07;5.30;;;2.67;;
64188;SDS011;50493;50.970;10.082;2023-03-30T03:25:33;6.13;;;2.90;;
64188;SDS011;50493;50.970;10.082;2023-03-30T03:27:58;4.13;;;2.60;;
64188;SDS011;50493;50.970;10.082;2023-03-30T03:30:23;6.05;;;2.72;;
64188;SDS011;50493;50.970;10.082;2023-03-30T03:32:49;5.03;;;2.80;;
64188;SDS011;50493;50.970;10.082;2023-03-30T03:35:16;5.38;;;2.63;;
64188;SDS011;50493;50.970;10.082;2023-03-30T03:37:41;6.25;;;2.42;;
64188;SDS011;50493;50.970;10.082;2023-03-30T03:40:07;7.05;;;2.83;;
64188;SDS011;50493;50.970;10.082;2023-03-30T03:42:35;4.95;;;2.38;;
64188;SDS011;50493;50.970;10.082;2023-03-30T03:45:01;6.10;;;2.72;;
64188;SDS011;50493;50.970;10.082;2023-03-30T03:47:26;7.50;;;3.10;;
64188;SDS011;50493;50.970;10.082;2023-03-30T03:49:51;4.95;;;2.90;;
64188;SDS011;50493;50.970;10.082;2023-03-30T03:52:18;7.03;;;3.08;;
64188;SDS011;50493;50.970;10.082;2023-03-30T03:54:43;8.65;;;2.92;;
64188;SDS011;50493;50.970;10.082;2023-03-30T03:57:09;11.30;;;3.15;;
64188;SDS011;50493;50.970;10.082;2023-03-30T03:59:34;8.25;;;3.20;;
64188;SDS011;50493;50.970;10.082;2023-03-30T04:02:00;4.63;;;2.80;;
64188;SDS011;50493;50.970;10.082;2023-03-30T04:04:25;8.48;;;2.60;;
64188;SDS011;50493;50.970;10.082;2023-03-30T04:06:51;9.00;;;2.80;;
64188;SDS011;50493;50.970;10.082;2023-03-30T04:09:18;6.25;;;2.40;;
64188;SDS011;50493;50.970;10.082;2023-03-30T04:11:45;8.13;;;2.60;;
64188;SDS011;50493;50.970;10.082;2023-03-30T04:14:10;6.75;;;2.72;;
64188;SDS011;50493;50.970;10.082;2023-03-30T04:16:36;7.97;;;2.38;;
64188;SDS011;50493;50.970;10.082;2023-03-30T04:19:01;10.20;;;2.67;;
64188;SDS011;50493;50.970;10.082;2023-03-30T04:21:27;10.30;;;2.97;;
64188;SDS011;50493;50.970;10.082;2023-03-30T04:23:53;7.10;;;2.65;;
64188;SDS011;50493;50.970;10.082;2023-03-30T04:26:20;8.85;;;2.85;;
64188;SDS011;50493;50.970;10.082;2023-03-30T04:28:46;10.70;;;2.80;;
64188;SDS011;50493;50.970;10.082;2023-03-30T04:31:11;7.60;;;2.75;;
64188;SDS011;50493;50.970;10.082;2023-03-30T04:33:37;7.03;;;2.88;;
64188;SDS011;50493;50.970;10.082;2023-03-30T04:36:09;9.50;;;2.70;;
64188;SDS011;50493;50.970;10.082;2023-03-30T04:38:35;8.70;;;2.40;;
64188;SDS011;50493;50.970;10.082;2023-03-30T04:41:00;5.32;;;2.55;;
64188;SDS011;50493;50.970;10.082;2023-03-30T04:43:27;6.97;;;2.85;;
64188;SDS011;50493;50.970;10.082;2023-03-30T04:45:53;7.93;;;2.97;;
64188;SDS011;50493;50.970;10.082;2023-03-30T04:48:20;6.88;;;2.55;;
64188;SDS011;50493;50.970;10.082;2023-03-30T04:50:48;8.40;;;2.97;;
64188;SDS011;50493;50.970;10.082;2023-03-30T04:53:15;8.25;;;2.63;;
64188;SDS011;50493;50.970;10.082;2023-03-30T04:55:41;5.93;;;1.90;;
64188;SDS011;50493;50.970;10.082;2023-03-30T04:58:11;6.13;;;2.40;;
64188;SDS011;50493;50.970;10.082;2023-03-30T05:00:38;7.13;;;2.90;;
64188;SDS011;50493;50.970;10.082;2023-03-30T05:03:04;7.07;;;2.40;;
64188;SDS011;50493;50.970;10.082;2023-03-30T05:05:30;5.90;;;2.42;;
64188;SDS011;50493;50.970;10.082;2023-03-30T05:07:56;8.23;;;2.75;;
64188;SDS011;50493;50.970;10.082;2023-03-30T05:10:22;7.00;;;2.80;;
64188;SDS011;50493;50.970;10.082;2023-03-30T05:12:47;6.93;;;2.88;;
64188;SDS011;50493;50.970;10.082;2023-03-30T05:15:13;7.78;;;2.50;;
64188;SDS011;50493;50.970;10.082;2023-03-30T05:17:40;8.48;;;3.08;;
64188;SDS011;50493;50.970;10.082;2023-03-30T05:20:06;8.82;;;2.92;;
64188;SDS011;50493;50.970;10.082;2023-03-30T05:22:35;12.23;;;3.00;;
64188;SDS011;50493;50.970;10.082;2023-03-30T05:25:00;9.40;;;3.10;;
64188;SDS011;50493;50.970;10.082;2023-03-30T05:27:26;7.78;;;2.90;;
64188;SDS011;50493;50.970;10.082;2023-03-30T05:29:51;9.90;;;3.15;;
64188;SDS011;50493;50.970;10.082;2023-03-30T05:32:17;9.15;;;3.45;;
64188;SDS011;50493;50.970;10.082;2023-03-30T05:34:43;6.53;;;3.08;;
64188;SDS011;50493;50.970;10.082;2023-03-30T05:37:09;6.13;;;2.63;;
64188;SDS011;50493;50.970;10.082;2023-03-30T05:39:34;13.65;;;3.13;;
64188;SDS011;50493;50.970;10.082;2023-03-30T05:42:01;9.50;;;3.55;;
64188;SDS011;50493;50.970;10.082;2023-03-30T05:44:26;7.10;;;2.97;;
64188;SDS011;50493;50.970;10.082;2023-03-30T05:46:51;7.63;;;2.88;;
64188;SDS011;50493;50.970;10.082;2023-03-30T05:49:17;7.10;;;3.10;;
64188;SDS011;50493;50.970;10.082;2023-03-30T05:51:43;7.95;;;3.20;;
64188;SDS011;50493;50.970;10.082;2023-03-30T05:54:09;7.97;;;3.05;;
64188;SDS011;50493;50.970;10.082;2023-03-30T05:56:35;7.43;;;2.70;;
64188;SDS011;50493;50.970;10.082;2023-03-30T05:59:01;9.18;;;3.10;;
64188;SDS011;50493;50.970;10.082;2023-03-30T06:01:29;8.45;;;2.67;;
64188;SDS011;50493;50.970;10.082;2023-03-30T06:03:54;6.53;;;2.70;;
64188;SDS011;50493;50.970;10.082;2023-03-30T06:06:20;6.80;;;2.83;;
64188;SDS011;50493;50.970;10.082;2023-03-30T06:08:46;6.97;;;2.80;;
64188;SDS011;50493;50.970;10.082;2023-03-30T06:11:13;7.55;;;2.92;;
64188;SDS011;50493;50.970;10.082;2023-03-30T06:13:38;8.50;;;3.50;;
64188;SDS011;50493;50.970;10.082;2023-03-30T06:16:04;8.85;;;2.97;;
64188;SDS011;50493;50.970;10.082;2023-03-30T06:18:30;10.63;;;2.92;;
64188;SDS011;50493;50.970;10.082;2023-03-30T06:20:56;7.10;;;2.67;;
64188;SDS011;50493;50.970;10.082;2023-03-30T06:23:21;12.68;;;4.13;;
64188;SDS011;50493;50.970;10.082;2023-03-30T06:25:49;9.90;;;4.00;;
64188;SDS011;50493;50.970;10.082;2023-03-30T06:28:16;8.68;;;3.60;;
64188;SDS011;50493;50.970;10.082;2023-03-30T06:30:42;8.52;;;3.83;;
64188;SDS011;50493;50.970;10.082;2023-03-30T06:33:09;8.60;;;3.00;;
64188;SDS011;50493;50.970;10.082;2023-03-30T06:35:35;8.52;;;2.90;;
64188;SDS011;50493;50.970;10.082;2023-03-30T06:38:01;12.63;;;4.15;;
64188;SDS011;50493;50.970;10.082;2023-03-30T06:40:26;9.32;;;4.15;;
64188;SDS011;50493;50.970;10.082;2023-03-30T06:42:53;12.32;;;4.93;;
64188;SDS011;50493;50.970;10.082;2023-03-30T06:45:18;13.65;;;5.25;;
64188;SDS011;50493;50.970;10.082;2023-03-30T06:47:44;17.33;;;5.10;;
64188;SDS011;50493;50.970;10.082;2023-03-30T06:50:10;9.90;;;3.55;;
64188;SDS011;50493;50.970;10.082;2023-03-30T06:52:36;16.05;;;4.63;;
64188;SDS011;50493;50.970;10.082;2023-03-30T06:55:02;12.63;;;4.70;;
64188;SDS011;50493;50.970;10.082;2023-03-30T06:57:27;15.20;;;4.65;;
64188;SDS011;50493;50.970;10.082;2023-03-30T06:59:54;13.18;;;5.15;;
64188;SDS011;50493;50.970;10.082;2023-03-30T07:02:19;10.80;;;3.28;;
64188;SDS011;50493;50.970;10.082;2023-03-30T07:04:45;12.25;;;4.15;;
64188;SDS011;50493;50.970;10.082;2023-03-30T07:07:11;10.95;;;3.42;;
64188;SDS011;50493;50.970;10.082;2023-03-30T07:09:36;8.38;;;3.78;;
64188;SDS011;50493;50.970;10.082;2023-03-30T07:12:02;12.77;;;3.78;;
64188;SDS011;50493;50.970;10.082;2023-03-30T07:14:27;8.95;;;3.85;;
64188;SDS011;50493;50.970;10.082;2023-03-30T07:16:54;12.20;;;3.47;;
64188;SDS011;50493;50.970;10.082;2023-03-30T07:19:20;13.10;;;3.20;;
64188;SDS011;50493;50.970;10.082;2023-03-30T07:21:46;6.88;;;2.33;;
64188;SDS011;50493;50.970;10.082;2023-03-30T07:24:11;9.93;;;3.17;;
64188;SDS011;50493;50.970;10.082;2023-03-30T07:26:37;9.70;;;3.03;;
64188;SDS011;50493;50.970;10.082;2023-03-30T07:29:02;12.43;;;3.17;;
64188;SDS011;50493;50.970;10.082;2023-03-30T07:31:29;12.60;;;3.63;;
64188;SDS011;50493;50.970;10.082;2023-03-30T07:33:56;11.05;;;2.85;;
64188;SDS011;50493;50.970;10.082;2023-03-30T07:36:21;6.38;;;3.13;;
64188;SDS011;50493;50.970;10.082;2023-03-30T07:38:47;10.70;;;3.78;;
64188;SDS011;50493;50.970;10.082;2023-03-30T07:41:13;11.57;;;3.58;;
64188;SDS011;50493;50.970;10.082;2023-03-30T07:43:40;12.15;;;2.92;;
64188;SDS011;50493;50.970;10.082;2023-03-30T07:46:05;12.95;;;3.00;;
64188;SDS011;50493;50.970;10.082;2023-03-30T07:48:31;10.52;;;2.97;;
64188;SDS011;50493;50.970;10.082;2023-03-30T07:51:02;12.52;;;3.25;;
64188;SDS011;50493;50.970;10.082;2023-03-30T07:53:28;7.45;;;2.40;;
64188;SDS011;50493;50.970;10.082;2023-03-30T07:55:54;8.43;;;2.70;;
64188;SDS011;50493;50.970;10.082;2023-03-30T07:58:20;7.47;;;2.60;;
64188;SDS011;50493;50.970;10.082;2023-03-30T08:00:45;7.22;;;2.88;;
64188;SDS011;50493;50.970;10.082;2023-03-30T08:03:12;7.60;;;2.60;;
64188;SDS011;50493;50.970;10.082;2023-03-30T08:05:38;12.07;;;3.55;;
64188;SDS011;50493;50.970;10.082;2023-03-30T08:08:04;8.90;;;2.70;;
64188;SDS011;50493;50.970;10.082;2023-03-30T08:10:30;10.02;;;3.30;;
64188;SDS011;50493;50.970;10.082;2023-03-30T08:12:55;11.45;;;2.75;;
64188;SDS011;50493;50.970;10.082;2023-03-30T08:15:20;11.13;;;2.67;;
64188;SDS011;50493;50.970;10.082;2023-03-30T08:17:46;7.80;;;2.40;;
64188;SDS011;50493;50.970;10.082;2023-03-30T08:20:11;6.30;;;2.97;;
64188;SDS011;50493;50.970;10.082;2023-03-30T08:22:37;7.97;;;2.47;;
64188;SDS011;50493;50.970;10.082;2023-03-30T08:25:04;6.85;;;2.50;;
64188;SDS011;50493;50.970;10.082;2023-03-30T08:27:30;8.23;;;2.92;;
64188;SDS011;50493;50.970;10.082;2023-03-30T08:29:55;5.85;;;2.70;;
64188;SDS011;50493;50.970;10.082;2023-03-30T08:32:21;8.23;;;2.50;;
64188;SDS011;50493;50.970;10.082;2023-03-30T08:34:46;6.60;;;2.58;;
64188;SDS011;50493;50.970;10.082;2023-03-30T08:37:12;7.93;;;2.90;;
64188;SDS011;50493;50.970;10.082;2023-03-30T08:39:37;8.52;;;2.65;;
64188;SDS011;50493;50.970;10.082;2023-03-30T08:42:10;8.38;;;3.08;;
64188;SDS011;50493;50.970;10.082;2023-03-30T08:44:54;11.07;;;3.30;;
64188;SDS011;50493;50.970;10.082;2023-03-30T08:47:23;8.20;;;2.47;;
64188;SDS011;50493;50.970;10.082;2023-03-30T08:49:57;9.35;;;2.50;;
64188;SDS011;50493;50.970;10.082;2023-03-30T08:52:26;6.75;;;2.70;;
64188;SDS011;50493;50.970;10.082;2023-03-30T08:54:52;8.32;;;3.00;;
64188;SDS011;50493;50.970;10.082;2023-03-30T08:57:24;9.93;;;3.00;;
64188;SDS011;50493;50.970;10.082;2023-03-30T09:00:05;8.13;;;2.75;;
64188;SDS011;50493;50.970;10.082;2023-03-30T09:02:45;7.13;;;2.75;;
64188;SDS011;50493;50.970;10.082;2023-03-30T09:05:14;6.13;;;2.72;;
64188;SDS011;50493;50.970;10.082;2023-03-30T09:07:46;7.30;;;2.55;;
64188;SDS011;50493;50.970;10.082;2023-03-30T09:10:20;6.80;;;2.60;;
64188;SDS011;50493;50.970;10.082;2023-03-30T09:12:50;13.10;;;3.55;;
64188;SDS011;50493;50.970;10.082;2023-03-30T09:15:19;6.00;;;3.00;;
64188;SDS011;50493;50.970;10.082;2023-03-30T09:17:49;8.80;;;3.25;;
64188;SDS011;50493;50.970;10.082;2023-03-30T09:20:21;8.90;;;2.95;;
64188;SDS011;50493;50.970;10.082;2023-03-30T09:22:48;8.82;;;2.85;;
64188;SDS011;50493;50.970;10.082;2023-03-30T09:25:16;6.70;;;2.65;;
64188;SDS011;50493;50.970;10.082;2023-03-30T09:27:55;7.18;;;2.90;;
64188;SDS011;50493;50.970;10.082;2023-03-30T09:30:30;5.22;;;2.50;;
64188;SDS011;50493;50.970;10.082;2023-03-30T09:33:00;8.48;;;2.97;;
64188;SDS011;50493;50.970;10.082;2023-03-30T09:35:33;5.22;;;2.53;;
64188;SDS011;50493;50.970;10.082;2023-03-30T09:38:03;8.68;;;2.90;;
64188;SDS011;50493;50.970;10.082;2023-03-30T09:40:36;7.25;;;2.80;;
64188;SDS011;50493;50.970;10.082;2023-03-30T09:43:11;7.43;;;2.92;;
64188;SDS011;50493;50.970;10.082;2023-03-30T09:45:40;7.93;;;3.10;;
64188;SDS011;50493;50.970;10.082;2023-03-30T09:48:08;7.53;;;3.20;;
64188;SDS011;50493;50.970;10.082;2023-03-30T09:50:35;6.72;;;2.65;;
64188;SDS011;50493;50.970;10.082;2023-03-30T09:53:03;5.78;;;2.60;;
64188;SDS011;50493;50.970;10.082;2023-03-30T09:55:31;4.40;;;2.20;;
64188;SDS011;50493;50.970;10.082;2023-03-30T09:58:13;8.25;;;2.70;;
64188;SDS011;50493;50.970;10.082;2023-03-30T10:00:41;6.93;;;2.80;;
64188;SDS011;50493;50.970;10.082;2023-03-30T10:03:07;8.00;;;3.08;;
64188;SDS011;50493;50.970;10.082;2023-03-30T10:08:16;7.72;;;2.58;;
64188;SDS011;50493;50.970;10.082;2023-03-30T10:10:45;6.30;;;2.67;;
64188;SDS011;50493;50.970;10.082;2023-03-30T10:13:29;7.30;;;2.50;;
64188;SDS011;50493;50.970;10.082;2023-03-30T10:15:58;12.32;;;3.22;;
64188;SDS011;50493;50.970;10.082;2023-03-30T10:18:32;5.40;;;2.45;;
64188;SDS011;50493;50.970;10.082;2023-03-30T10:21:02;7.50;;;2.97;;
64188;SDS011;50493;50.970;10.082;2023-03-30T10:23:29;9.13;;;3.05;;
64188;SDS011;50493;50.970;10.082;2023-03-30T10:25:59;8.50;;;3.92;;
64188;SDS011;50493;50.970;10.082;2023-03-30T10:28:29;9.27;;;3.97;;
64188;SDS011;50493;50.970;10.082;2023-03-30T10:30:57;7.70;;;3.47;;
64188;SDS011;50493;50.970;10.082;2023-03-30T10:33:25;8.15;;;3.47;;
64188;SDS011;50493;50.970;10.082;2023-03-30T10:35:53;6.43;;;2.83;;
64188;SDS011;50493;50.970;10.082;2023-03-30T10:38:21;5.53;;;2.50;;
64188;SDS011;50493;50.970;10.082;2023-03-30T10:40:54;7.15;;;2.85;;
64188;SDS011;50493;50.970;10.082;2023-03-30T10:43:27;5.72;;;2.50;;
64188;SDS011;50493;50.970;10.082;2023-03-30T10:45:56;5.97;;;2.53;;
64188;SDS011;50493;50.970;10.082;2023-03-30T10:48:35;7.20;;;2.60;;
64188;SDS011;50493;50.970;10.082;2023-03-30T10:51:06;5.03;;;2.10;;
64188;SDS011;50493;50.970;10.082;2023-03-30T10:53:38;5.43;;;2.50;;
64188;SDS011;50493;50.970;10.082;2023-03-30T10:56:15;4.88;;;2.35;;
64188;SDS011;50493;50.970;10.082;2023-03-30T10:58:55;6.95;;;2.47;;
64188;SDS011;50493;50.970;10.082;2023-03-30T11:01:32;9.02;;;3.83;;
64188;SDS011;50493;50.970;10.082;2023-03-30T11:04:09;7.72;;;2.33;;
64188;SDS011;50493;50.970;10.082;2023-03-30T11:06:40;6.38;;;2.10;;
64188;SDS011;50493;50.970;10.082;2023-03-30T11:09:08;5.07;;;2.30;;
64188;SDS011;50493;50.970;10.082;2023-03-30T11:11:39;6.38;;;2.97;;
64188;SDS011;50493;50.970;10.082;2023-03-30T11:16:38;5.65;;;2.15;;
64188;SDS011;50493;50.970;10.082;2023-03-30T11:19:11;5.72;;;2.30;;
64188;SDS011;50493;50.970;10.082;2023-03-30T11:21:41;6.85;;;2.20;;
64188;SDS011;50493;50.970;10.082;2023-03-30T11:24:16;4.32;;;2.08;;
64188;SDS011;50493;50.970;10.082;2023-03-30T11:26:44;6.28;;;2.10;;
64188;SDS011;50493;50.970;10.082;2023-03-30T11:29:20;5.90;;;2.08;;
64188;SDS011;50493;50.970;10.082;2023-03-30T11:31:55;5.25;;;2.35;;
64188;SDS011;50493;50.970;10.082;2023-03-30T11:34:33;5.68;;;2.20;;
64188;SDS011;50493;50.970;10.082;2023-03-30T11:37:05;7.03;;;2.38;;
64188;SDS011;50493;50.970;10.082;2023-03-30T11:39:36;3.67;;;2.13;;
64188;SDS011;50493;50.970;10.082;2023-03-30T11:42:12;6.20;;;2.30;;
64188;SDS011;50493;50.970;10.082;2023-03-30T11:44:41;6.25;;;2.40;;
64188;SDS011;50493;50.970;10.082;2023-03-30T11:47:12;5.88;;;2.22;;
64188;SDS011;50493;50.970;10.082;2023-03-30T11:49:54;9.00;;;2.70;;
64188;SDS011;50493;50.970;10.082;2023-03-30T11:52:31;7.47;;;2.05;;
64188;SDS011;50493;50.970;10.082;2023-03-30T12:00:26;6.90;;;2.50;;
64188;SDS011;50493;50.970;10.082;2023-03-30T12:03:02;6.15;;;2.45;;
64188;SDS011;50493;50.970;10.082;2023-03-30T12:05:36;5.75;;;2.42;;
64188;SDS011;50493;50.970;10.082;2023-03-30T12:08:07;5.72;;;2.10;;
64188;SDS011;50493;50.970;10.082;2023-03-30T12:10:43;6.15;;;2.78;;
64188;SDS011;50493;50.970;10.082;2023-03-30T12:13:11;5.28;;;2.00;;
64188;SDS011;50493;50.970;10.082;2023-03-30T12:15:42;5.07;;;2.17;;
64188;SDS011;50493;50.970;10.082;2023-03-30T12:18:17;3.40;;;1.73;;
64188;SDS011;50493;50.970;10.082;2023-03-30T12:20:51;9.38;;;2.60;;
64188;SDS011;50493;50.970;10.082;2023-03-30T12:23:21;4.65;;;2.60;;
64188;SDS011;50493;50.970;10.082;2023-03-30T12:26:05;9.45;;;2.40;;
64188;SDS011;50493;50.970;10.082;2023-03-30T12:28:44;4.82;;;2.13;;
64188;SDS011;50493;50.970;10.082;2023-03-30T12:31:13;5.72;;;2.30;;
64188;SDS011;50493;50.970;10.082;2023-03-30T12:33:44;5.80;;;2.10;;
64188;SDS011;50493;50.970;10.082;2023-03-30T12:36:21;4.75;;;2.03;;
64188;SDS011;50493;50.970;10.082;2023-03-30T12:38:52;4.50;;;1.90;;
64188;SDS011;50493;50.970;10.082;2023-03-30T12:41:22;6.78;;;2.40;;
64188;SDS011;50493;50.970;10.082;2023-03-30T12:44:13;5.50;;;2.40;;
64188;SDS011;50493;50.970;10.082;2023-03-30T12:46:52;5.00;;;2.08;;
64188;SDS011;50493;50.970;10.082;2023-03-30T12:49:31;6.80;;;2.20;;
64188;SDS011;50493;50.970;10.082;2023-03-30T12:52:06;7.20;;;2.20;;
64188;SDS011;50493;50.970;10.082;2023-03-30T12:57:31;3.28;;;1.88;;
64188;SDS011;50493;50.970;10.082;2023-03-30T13:00:10;3.13;;;1.50;;
64188;SDS011;50493;50.970;10.082;2023-03-30T13:02:56;4.45;;;1.77;;
64188;SDS011;50493;50.970;10.082;2023-03-30T13:05:28;6.00;;;2.08;;
64188;SDS011;50493;50.970;10.082;2023-03-30T13:07:56;4.13;;;1.67;;
64188;SDS011;50493;50.970;10.082;2023-03-30T13:10:35;6.93;;;1.55;;
64188;SDS011;50493;50.970;10.082;2023-03-30T13:13:03;4.50;;;1.40;;
64188;SDS011;50493;50.970;10.082;2023-03-30T13:15:34;5.80;;;1.63;;
64188;SDS011;50493;50.970;10.082;2023-03-30T13:18:24;1.98;;;1.20;;
64188;SDS011;50493;50.970;10.082;2023-03-30T13:21:05;1.88;;;0.77;;
64188;SDS011;50493;50.970;10.082;2023-03-30T13:23:41;4.00;;;1.40;;
64188;SDS011;50493;50.970;10.082;2023-03-30T13:26:19;2.58;;;1.00;;
64188;SDS011;50493;50.970;10.082;2023-03-30T13:28:54;1.27;;;0.80;;
64188;SDS011;50493;50.970;10.082;2023-03-30T13:34:14;2.47;;;0.75;;
64188;SDS011;50493;50.970;10.082;2023-03-30T13:36:49;3.15;;;1.58;;
64188;SDS011;50493;50.970;10.082;2023-03-30T13:39:24;3.60;;;1.52;;
64188;SDS011;50493;50.970;10.082;2023-03-30T13:42:01;2.25;;;1.23;;
64188;SDS011;50493;50.970;10.082;2023-03-30T13:44:43;3.92;;;1.60;;
64188;SDS011;50493;50.970;10.082;2023-03-30T13:47:24;2.63;;;1.58;;
64188;SDS011;50493;50.970;10.082;2023-03-30T13:49:58;1.38;;;0.95;;
64188;SDS011;50493;50.970;10.082;2023-03-30T13:52:29;4.05;;;1.20;;
64188;SDS011;50493;50.970;10.082;2023-03-30T13:54:58;2.05;;;1.17;;
64188;SDS011;50493;50.970;10.082;2023-03-30T13:57:26;2.28;;;0.93;;
64188;SDS011;50493;50.970;10.082;2023-03-30T13:59:59;2.55;;;0.90;;
64188;SDS011;50493;50.970;10.082;2023-03-30T14:02:29;2.15;;;1.00;;
64188;SDS011;50493;50.970;10.082;2023-03-30T14:05:10;2.30;;;1.27;;
64188;SDS011;50493;50.970;10.082;2023-03-30T14:07:39;2.97;;;1.42;;
64188;SDS011;50493;50.970;10.082;2023-03-30T14:10:06;3.78;;;1.20;;
64188;SDS011;50493;50.970;10.082;2023-03-30T14:12:36;4.63;;;2.00;;
64188;SDS011;50493;50.970;10.082;2023-03-30T14:15:11;3.08;;;1.50;;
64188;SDS011;50493;50.970;10.082;2023-03-30T14:17:44;3.47;;;1.70;;
64188;SDS011;50493;50.970;10.082;2023-03-30T14:20:14;5.45;;;2.05;;
64188;SDS011;50493;50.970;10.082;2023-03-30T14:22:50;11.68;;;4.75;;
64188;SDS011;50493;50.970;10.082;2023-03-30T14:25:21;2.63;;;0.85;;
64188;SDS011;50493;50.970;10.082;2023-03-30T14:27:49;5.65;;;2.80;;
64188;SDS011;50493;50.970;10.082;2023-03-30T14:30:17;5.28;;;2.38;;
64188;SDS011;50493;50.970;10.082;2023-03-30T14:32:43;12.98;;;6.65;;
64188;SDS011;50493;50.970;10.082;2023-03-30T14:35:13;4.97;;;1.70;;
64188;SDS011;50493;50.970;10.082;2023-03-30T14:37:42;4.13;;;1.15;;
64188;SDS011;50493;50.970;10.082;2023-03-30T14:40:09;4.53;;;2.00;;
64188;SDS011;50493;50.970;10.082;2023-03-30T14:42:40;5.90;;;2.30;;
64188;SDS011;50493;50.970;10.082;2023-03-30T14:45:07;6.10;;;3.70;;
64188;SDS011;50493;50.970;10.082;2023-03-30T14:47:33;4.38;;;2.10;;
64188;SDS011;50493;50.970;10.082;2023-03-30T14:50:02;3.90;;;2.00;;
64188;SDS011;50493;50.970;10.082;2023-03-30T14:52:32;4.43;;;1.52;;
64188;SDS011;50493;50.970;10.082;2023-03-30T14:55:01;4.68;;;2.20;;
64188;SDS011;50493;50.970;10.082;2023-03-30T14:57:27;3.60;;;1.70;;
64188;SDS011;50493;50.970;10.082;2023-03-30T14:59:54;4.78;;;2.10;;
64188;SDS011;50493;50.970;10.082;2023-03-30T15:02:24;3.72;;;1.58;;
64188;SDS011;50493;50.970;10.082;2023-03-30T15:04:52;3.63;;;1.55;;
64188;SDS011;50493;50.970;10.082;2023-03-30T15:07:18;2.47;;;1.40;;